Terminal Aerodrome Forecast
Issued by NWS Tuscon, AZ

Home | Current Version | Previous Version | Text Only | Print | Product List | Glossary On
Versions: 1 2 3 4 5 6 7 8 9 10 11 12 13 14 15 16
000
FTUS45 KTWC 031311 AAA
TAFTUS
TAF AMD
KTUS 031311Z 0313/0412 08012G18KT P6SM SCT150 OVC250
     FM031800 32007KT P6SM SCT100 SCT250
     FM032200 31009G17KT P6SM SCT100 OVC250
     FM040400 25007KT P6SM SCT100 BKN250=

USA.gov is the U.S. government's official web portal to all federal, state and local government web resources and services.